sensor_id;sensor_type;location;lat;lon;timestamp;pressure;altitude;pressure_sealevel;temperature;humidity
73633;BME280;61927;50.080;14.418;2023-09-19T00:00:30;98845.38;;;18.20;82.50
73633;BME280;61927;50.080;14.418;2023-09-19T00:03:15;98850.03;;;18.18;82.24
73633;BME280;61927;50.080;14.418;2023-09-19T00:05:41;98850.34;;;18.15;81.66
73633;BME280;61927;50.080;14.418;2023-09-19T00:08:10;98845.16;;;18.13;81.03
73633;BME280;61927;50.080;14.418;2023-09-19T00:10:36;98841.78;;;18.11;81.05
73633;BME280;61927;50.080;14.418;2023-09-19T00:13:03;98862.09;;;18.14;81.03
73633;BME280;61927;50.080;14.418;2023-09-19T00:15:38;98862.41;;;18.11;81.06
73633;BME280;61927;50.080;14.418;2023-09-19T00:18:04;98854.50;;;18.09;81.53
73633;BME280;61927;50.080;14.418;2023-09-19T00:20:37;98860.03;;;18.07;82.70
73633;BME280;61927;50.080;14.418;2023-09-19T00:23:04;98852.31;;;18.04;83.24
73633;BME280;61927;50.080;14.418;2023-09-19T00:25:35;98859.88;;;18.09;82.42
73633;BME280;61927;50.080;14.418;2023-09-19T00:28:01;98860.34;;;18.04;82.53
73633;BME280;61927;50.080;14.418;2023-09-19T00:30:27;98868.03;;;17.99;82.40
73633;BME280;61927;50.080;14.418;2023-09-19T00:32:52;98872.88;;;17.96;81.03
73633;BME280;61927;50.080;14.418;2023-09-19T00:35:18;98867.81;;;17.93;80.45
73633;BME280;61927;50.080;14.418;2023-09-19T00:37:51;98865.28;;;17.91;80.73
73633;BME280;61927;50.080;14.418;2023-09-19T00:40:16;98869.13;;;17.89;80.32
73633;BME280;61927;50.080;14.418;2023-09-19T00:42:46;98887.06;;;17.88;80.13
73633;BME280;61927;50.080;14.418;2023-09-19T00:45:14;98885.06;;;17.90;78.56
73633;BME280;61927;50.080;14.418;2023-09-19T00:47:51;98879.00;;;17.88;78.66
73633;BME280;61927;50.080;14.418;2023-09-19T00:50:22;98876.19;;;17.90;78.25
73633;BME280;61927;50.080;14.418;2023-09-19T00:52:49;98878.34;;;17.86;78.28
73633;BME280;61927;50.080;14.418;2023-09-19T00:55:16;98873.97;;;17.85;78.38
73633;BME280;61927;50.080;14.418;2023-09-19T00:57:44;98873.59;;;17.80;78.54
73633;BME280;61927;50.080;14.418;2023-09-19T01:00:10;98874.88;;;17.76;78.83
73633;BME280;61927;50.080;14.418;2023-09-19T01:02:42;98870.66;;;17.73;78.58
73633;BME280;61927;50.080;14.418;2023-09-19T01:05:11;98862.09;;;17.70;79.11
73633;BME280;61927;50.080;14.418;2023-09-19T01:07:38;98873.50;;;17.72;78.79
73633;BME280;61927;50.080;14.418;2023-09-19T01:10:12;98864.84;;;17.78;78.16
73633;BME280;61927;50.080;14.418;2023-09-19T01:23:26;98866.31;;;17.72;77.13
73633;BME280;61927;50.080;14.418;2023-09-19T01:31:34;98860.59;;;17.58;77.61
73633;BME280;61927;50.080;14.418;2023-09-19T01:34:03;98862.59;;;17.56;77.42
73633;BME280;61927;50.080;14.418;2023-09-19T01:36:35;98850.88;;;17.57;77.48
73633;BME280;61927;50.080;14.418;2023-09-19T01:39:04;98850.34;;;17.53;77.47
73633;BME280;61927;50.080;14.418;2023-09-19T01:41:57;98862.75;;;17.54;77.48
73633;BME280;61927;50.080;14.418;2023-09-19T01:44:49;98860.75;;;17.56;77.16
73633;BME280;61927;50.080;14.418;2023-09-19T01:47:22;98851.72;;;17.57;77.31
73633;BME280;61927;50.080;14.418;2023-09-19T01:50:02;98859.59;;;17.59;76.97
73633;BME280;61927;50.080;14.418;2023-09-19T01:52:36;98857.06;;;17.57;77.62
73633;BME280;61927;50.080;14.418;2023-09-19T01:55:09;98857.22;;;17.56;77.24
73633;BME280;61927;50.080;14.418;2023-09-19T01:58:01;98856.22;;;17.57;77.51
73633;BME280;61927;50.080;14.418;2023-09-19T02:00:31;98861.97;;;17.62;77.24
73633;BME280;61927;50.080;14.418;2023-09-19T02:02:59;98859.59;;;17.59;77.17
73633;BME280;61927;50.080;14.418;2023-09-19T02:05:25;98858.59;;;17.60;77.08
73633;BME280;61927;50.080;14.418;2023-09-19T02:07:53;98861.28;;;17.60;77.36
73633;BME280;61927;50.080;14.418;2023-09-19T02:10:19;98863.13;;;17.59;77.17
73633;BME280;61927;50.080;14.418;2023-09-19T02:12:45;98854.09;;;17.60;77.00
73633;BME280;61927;50.080;14.418;2023-09-19T02:15:12;98851.25;;;17.62;77.09
73633;BME280;61927;50.080;14.418;2023-09-19T02:17:37;98845.44;;;17.66;77.18
73633;BME280;61927;50.080;14.418;2023-09-19T02:20:03;98843.00;;;17.73;76.57
73633;BME280;61927;50.080;14.418;2023-09-19T02:22:36;98846.38;;;17.75;76.59
73633;BME280;61927;50.080;14.418;2023-09-19T02:25:02;98851.88;;;17.73;76.37
73633;BME280;61927;50.080;14.418;2023-09-19T02:27:30;98855.03;;;17.69;77.11
73633;BME280;61927;50.080;14.418;2023-09-19T02:29:56;98851.66;;;17.67;77.19
73633;BME280;61927;50.080;14.418;2023-09-19T02:32:21;98854.88;;;17.70;77.07
73633;BME280;61927;50.080;14.418;2023-09-19T02:34:48;98851.56;;;17.77;75.92
73633;BME280;61927;50.080;14.418;2023-09-19T02:37:14;98852.09;;;17.80;75.77
73633;BME280;61927;50.080;14.418;2023-09-19T02:39:42;98850.97;;;17.83;75.80
73633;BME280;61927;50.080;14.418;2023-09-19T02:42:08;98856.16;;;17.84;75.68
73633;BME280;61927;50.080;14.418;2023-09-19T02:44:33;98855.84;;;17.87;75.25
73633;BME280;61927;50.080;14.418;2023-09-19T02:46:59;98849.50;;;17.88;75.00
73633;BME280;61927;50.080;14.418;2023-09-19T02:49:25;98849.50;;;17.88;75.02
73633;BME280;61927;50.080;14.418;2023-09-19T02:51:50;98849.19;;;17.91;75.08
73633;BME280;61927;50.080;14.418;2023-09-19T02:54:16;98847.81;;;17.87;75.39
73633;BME280;61927;50.080;14.418;2023-09-19T02:56:42;98838.75;;;17.88;75.43
73633;BME280;61927;50.080;14.418;2023-09-19T02:59:07;98842.28;;;17.89;75.89
73633;BME280;61927;50.080;14.418;2023-09-19T03:01:36;98841.13;;;17.91;75.27
73633;BME280;61927;50.080;14.418;2023-09-19T03:04:04;98842.81;;;17.92;75.37
73633;BME280;61927;50.080;14.418;2023-09-19T03:06:33;98828.19;;;17.87;75.36
73633;BME280;61927;50.080;14.418;2023-09-19T03:08:59;98825.50;;;17.87;75.49
73633;BME280;61927;50.080;14.418;2023-09-19T03:11:25;98836.38;;;17.85;75.46
73633;BME280;61927;50.080;14.418;2023-09-19T03:13:52;98840.38;;;17.81;75.64
73633;BME280;61927;50.080;14.418;2023-09-19T03:16:18;98843.91;;;17.82;75.84
73633;BME280;61927;50.080;14.418;2023-09-19T03:18:48;98848.59;;;17.80;76.02
73633;BME280;61927;50.080;14.418;2023-09-19T03:21:17;98841.53;;;17.79;76.05
73633;BME280;61927;50.080;14.418;2023-09-19T03:23:44;98852.09;;;17.80;75.73
73633;BME280;61927;50.080;14.418;2023-09-19T03:26:13;98854.09;;;17.78;76.26
73633;BME280;61927;50.080;14.418;2023-09-19T03:28:42;98844.69;;;17.74;76.13
73633;BME280;61927;50.080;14.418;2023-09-19T03:31:08;98841.84;;;17.75;76.07
73633;BME280;61927;50.080;14.418;2023-09-19T03:33:34;98848.06;;;17.76;76.30
73633;BME280;61927;50.080;14.418;2023-09-19T03:36:01;98851.56;;;17.77;76.23
73633;BME280;61927;50.080;14.418;2023-09-19T03:38:30;98851.19;;;17.71;76.34
73633;BME280;61927;50.080;14.418;2023-09-19T03:40:56;98852.34;;;17.69;76.61
73633;BME280;61927;50.080;14.418;2023-09-19T03:43:22;98848.97;;;17.67;77.10
73633;BME280;61927;50.080;14.418;2023-09-19T03:45:48;98850.09;;;17.64;77.14
73633;BME280;61927;50.080;14.418;2023-09-19T03:48:14;98849.25;;;17.64;77.55
73633;BME280;61927;50.080;14.418;2023-09-19T03:50:40;98849.09;;;17.65;77.09
73633;BME280;61927;50.080;14.418;2023-09-19T03:53:05;98843.63;;;17.67;76.70
73633;BME280;61927;50.080;14.418;2023-09-19T03:55:33;98850.81;;;17.66;77.01
73633;BME280;61927;50.080;14.418;2023-09-19T03:58:01;98852.94;;;17.63;76.98
73633;BME280;61927;50.080;14.418;2023-09-19T04:00:27;98861.66;;;17.65;76.99
73633;BME280;61927;50.080;14.418;2023-09-19T04:02:55;98857.16;;;17.65;76.68
73633;BME280;61927;50.080;14.418;2023-09-19T04:05:22;98861.41;;;17.68;76.60
73633;BME280;61927;50.080;14.418;2023-09-19T04:07:48;98873.97;;;17.67;76.60
73633;BME280;61927;50.080;14.418;2023-09-19T04:10:14;98872.13;;;17.68;76.99
73633;BME280;61927;50.080;14.418;2023-09-19T04:12:40;98875.25;;;17.63;77.15
73633;BME280;61927;50.080;14.418;2023-09-19T04:15:06;98878.91;;;17.62;76.87
73633;BME280;61927;50.080;14.418;2023-09-19T04:17:33;98874.56;;;17.61;77.68
73633;BME280;61927;50.080;14.418;2023-09-19T04:19:59;98886.97;;;17.62;77.12
73633;BME280;61927;50.080;14.418;2023-09-19T04:22:25;98889.81;;;17.61;77.64
73633;BME280;61927;50.080;14.418;2023-09-19T04:24:51;98887.66;;;17.64;77.22
73633;BME280;61927;50.080;14.418;2023-09-19T04:27:16;98892.75;;;17.67;77.54
73633;BME280;61927;50.080;14.418;2023-09-19T04:29:44;98892.19;;;17.64;77.24
73633;BME280;61927;50.080;14.418;2023-09-19T04:32:10;98890.66;;;17.61;77.48
73633;BME280;61927;50.080;14.418;2023-09-19T04:34:36;98900.22;;;17.64;77.43
73633;BME280;61927;50.080;14.418;2023-09-19T04:37:01;98902.91;;;17.64;77.61
73633;BME280;61927;50.080;14.418;2023-09-19T04:39:27;98904.75;;;17.63;77.77
73633;BME280;61927;50.080;14.418;2023-09-19T04:41:53;98909.13;;;17.64;77.36
73633;BME280;61927;50.080;14.418;2023-09-19T04:44:20;98913.06;;;17.70;77.59
73633;BME280;61927;50.080;14.418;2023-09-19T04:46:46;98915.75;;;17.70;77.15
73633;BME280;61927;50.080;14.418;2023-09-19T04:49:12;98929.16;;;17.70;77.35
73633;BME280;61927;50.080;14.418;2023-09-19T04:51:39;98916.06;;;17.67;77.40
73633;BME280;61927;50.080;14.418;2023-09-19T04:54:05;98923.09;;;17.68;77.74
73633;BME280;61927;50.080;14.418;2023-09-19T04:56:31;98928.47;;;17.68;77.46
73633;BME280;61927;50.080;14.418;2023-09-19T04:58:58;98937.66;;;17.65;77.76
73633;BME280;61927;50.080;14.418;2023-09-19T05:01:24;98941.06;;;17.67;77.44
73633;BME280;61927;50.080;14.418;2023-09-19T05:03:50;98946.41;;;17.67;76.94
73633;BME280;61927;50.080;14.418;2023-09-19T05:06:22;98949.25;;;17.66;77.44
73633;BME280;61927;50.080;14.418;2023-09-19T05:08:48;98954.03;;;17.62;77.70
73633;BME280;61927;50.080;14.418;2023-09-19T05:11:18;98950.53;;;17.62;77.63
73633;BME280;61927;50.080;14.418;2023-09-19T05:13:44;98950.22;;;17.65;77.21
73633;BME280;61927;50.080;14.418;2023-09-19T05:16:10;98954.31;;;17.69;77.08
73633;BME280;61927;50.080;14.418;2023-09-19T05:18:36;98964.19;;;17.68;77.24
73633;BME280;61927;50.080;14.418;2023-09-19T05:21:02;98958.84;;;17.68;77.09
73633;BME280;61927;50.080;14.418;2023-09-19T05:23:28;98957.16;;;17.67;77.03
73633;BME280;61927;50.080;14.418;2023-09-19T05:25:54;98969.41;;;17.70;77.23
73633;BME280;61927;50.080;14.418;2023-09-19T05:28:20;98973.63;;;17.72;76.54
73633;BME280;61927;50.080;14.418;2023-09-19T05:30:45;98976.88;;;17.76;77.10
73633;BME280;61927;50.080;14.418;2023-09-19T05:33:12;98972.72;;;17.82;76.23
73633;BME280;61927;50.080;14.418;2023-09-19T05:35:38;98977.09;;;17.83;76.46
73633;BME280;61927;50.080;14.418;2023-09-19T05:38:07;98977.78;;;17.85;76.29
73633;BME280;61927;50.080;14.418;2023-09-19T05:40:34;98980.47;;;17.85;76.68
73633;BME280;61927;50.080;14.418;2023-09-19T05:43:00;98978.63;;;17.85;76.28
73633;BME280;61927;50.080;14.418;2023-09-19T05:45:27;98982.41;;;17.92;76.12
73633;BME280;61927;50.080;14.418;2023-09-19T05:47:53;98978.56;;;17.95;75.93
73633;BME280;61927;50.080;14.418;2023-09-19T05:50:29;98980.09;;;17.97;75.37
73633;BME280;61927;50.080;14.418;2023-09-19T05:52:55;98979.56;;;17.94;75.88
73633;BME280;61927;50.080;14.418;2023-09-19T05:55:23;98985.09;;;17.92;75.86
73633;BME280;61927;50.080;14.418;2023-09-19T05:57:54;98987.75;;;17.92;75.97
73633;BME280;61927;50.080;14.418;2023-09-19T06:00:20;98977.56;;;17.96;75.84
73633;BME280;61927;50.080;14.418;2023-09-19T06:02:59;98985.00;;;18.02;75.66
73633;BME280;61927;50.080;14.418;2023-09-19T06:05:26;98986.69;;;18.03;75.38
73633;BME280;61927;50.080;14.418;2023-09-19T06:07:53;98992.44;;;18.08;75.35
73633;BME280;61927;50.080;14.418;2023-09-19T06:10:20;99004.88;;;18.09;74.98
73633;BME280;61927;50.080;14.418;2023-09-19T06:12:48;99009.41;;;18.08;74.72
73633;BME280;61927;50.080;14.418;2023-09-19T06:15:16;99025.22;;;18.12;74.90
73633;BME280;61927;50.080;14.418;2023-09-19T06:17:51;99025.91;;;18.14;74.91
73633;BME280;61927;50.080;14.418;2023-09-19T06:20:21;99026.19;;;18.11;74.69
73633;BME280;61927;50.080;14.418;2023-09-19T06:22:48;99035.78;;;18.13;74.77
73633;BME280;61927;50.080;14.418;2023-09-19T06:25:15;99036.19;;;18.18;74.60
73633;BME280;61927;50.080;14.418;2023-09-19T06:27:48;99035.72;;;18.23;74.77
73633;BME280;61927;50.080;14.418;2023-09-19T06:30:14;99036.41;;;18.25;74.01
73633;BME280;61927;50.080;14.418;2023-09-19T06:32:41;99042.47;;;18.27;74.19
73633;BME280;61927;50.080;14.418;2023-09-19T06:35:11;99052.22;;;18.28;74.01
73633;BME280;61927;50.080;14.418;2023-09-19T06:37:41;99060.13;;;18.29;73.88
73633;BME280;61927;50.080;14.418;2023-09-19T06:40:13;99061.13;;;18.28;73.53
73633;BME280;61927;50.080;14.418;2023-09-19T06:43:06;99063.88;;;18.36;73.86
73633;BME280;61927;50.080;14.418;2023-09-19T06:45:32;99062.72;;;18.39;73.27
73633;BME280;61927;50.080;14.418;2023-09-19T06:47:57;99064.28;;;18.42;73.59
73633;BME280;61927;50.080;14.418;2023-09-19T06:50:25;99074.47;;;18.38;73.23
73633;BME280;61927;50.080;14.418;2023-09-19T06:52:55;99067.09;;;18.40;72.97
73633;BME280;61927;50.080;14.418;2023-09-19T06:55:23;99066.41;;;18.38;73.41
73633;BME280;61927;50.080;14.418;2023-09-19T06:57:54;99073.31;;;18.40;73.30
73633;BME280;61927;50.080;14.418;2023-09-19T07:00:20;99074.16;;;18.41;73.45
73633;BME280;61927;50.080;14.418;2023-09-19T07:02:59;99079.78;;;18.48;72.98
73633;BME280;61927;50.080;14.418;2023-09-19T07:05:27;99080.00;;;18.54;72.61
73633;BME280;61927;50.080;14.418;2023-09-19T07:07:53;99082.78;;;18.62;72.47
73633;BME280;61927;50.080;14.418;2023-09-19T07:10:21;99086.84;;;18.66;72.35
73633;BME280;61927;50.080;14.418;2023-09-19T07:12:55;99081.88;;;18.71;72.02
73633;BME280;61927;50.080;14.418;2023-09-19T07:15:21;99077.56;;;18.79;71.89
73633;BME280;61927;50.080;14.418;2023-09-19T07:17:48;99088.31;;;18.79;71.35
73633;BME280;61927;50.080;14.418;2023-09-19T07:20:13;99090.16;;;18.78;72.17
73633;BME280;61927;50.080;14.418;2023-09-19T07:22:41;99081.63;;;18.83;71.41
73633;BME280;61927;50.080;14.418;2023-09-19T07:25:07;99084.84;;;18.86;71.50
73633;BME280;61927;50.080;14.418;2023-09-19T07:27:33;99092.59;;;18.89;71.36
73633;BME280;61927;50.080;14.418;2023-09-19T07:29:59;99087.06;;;18.91;71.09
73633;BME280;61927;50.080;14.418;2023-09-19T07:32:24;99094.66;;;18.95;70.79
73633;BME280;61927;50.080;14.418;2023-09-19T07:34:50;99100.78;;;19.06;70.20
73633;BME280;61927;50.080;14.418;2023-09-19T07:37:16;99089.53;;;19.10;70.28
73633;BME280;61927;50.080;14.418;2023-09-19T07:39:42;99106.75;;;19.17;69.88
73633;BME280;61927;50.080;14.418;2023-09-19T07:42:08;99099.09;;;19.30;69.43
73633;BME280;61927;50.080;14.418;2023-09-19T07:44:37;99102.47;;;19.32;68.72
73633;BME280;61927;50.080;14.418;2023-09-19T07:47:03;99098.94;;;19.32;69.35
73633;BME280;61927;50.080;14.418;2023-09-19T07:49:29;99098.78;;;19.33;69.16
73633;BME280;61927;50.080;14.418;2023-09-19T07:51:54;99094.94;;;19.36;69.16
73633;BME280;61927;50.080;14.418;2023-09-19T07:54:22;99102.16;;;19.35;69.05
73633;BME280;61927;50.080;14.418;2023-09-19T07:56:47;99104.22;;;19.42;68.67
73633;BME280;61927;50.080;14.418;2023-09-19T07:59:13;99110.13;;;19.45;68.13
73633;BME280;61927;50.080;14.418;2023-09-19T08:01:39;99108.25;;;19.46;67.97
73633;BME280;61927;50.080;14.418;2023-09-19T08:04:07;99115.34;;;19.47;68.12
73633;BME280;61927;50.080;14.418;2023-09-19T08:06:32;99110.47;;;19.50;68.20
73633;BME280;61927;50.080;14.418;2023-09-19T08:08:59;99109.34;;;19.53;67.45
73633;BME280;61927;50.080;14.418;2023-09-19T08:11:26;99112.94;;;19.61;67.51
73633;BME280;61927;50.080;14.418;2023-09-19T08:13:52;99117.53;;;19.77;66.68
73633;BME280;61927;50.080;14.418;2023-09-19T08:16:18;99116.94;;;19.91;66.31
73633;BME280;61927;50.080;14.418;2023-09-19T08:18:48;99123.72;;;20.04;65.93
73633;BME280;61927;50.080;14.418;2023-09-19T08:21:18;99123.38;;;20.07;64.99
73633;BME280;61927;50.080;14.418;2023-09-19T08:23:44;99127.72;;;19.99;64.35
73633;BME280;61927;50.080;14.418;2023-09-19T08:26:10;99124.88;;;20.01;64.65
73633;BME280;61927;50.080;14.418;2023-09-19T08:28:37;99127.69;;;19.91;64.26
73633;BME280;61927;50.080;14.418;2023-09-19T08:31:06;99131.25;;;19.92;64.40
73633;BME280;61927;50.080;14.418;2023-09-19T08:33:33;99138.13;;;19.86;64.78
73633;BME280;61927;50.080;14.418;2023-09-19T08:35:59;99131.72;;;19.87;64.67
73633;BME280;61927;50.080;14.418;2023-09-19T08:38:25;99139.66;;;19.89;64.10
73633;BME280;61927;50.080;14.418;2023-09-19T08:41:00;99133.91;;;19.84;64.10
73633;BME280;61927;50.080;14.418;2023-09-19T08:43:27;99132.22;;;19.83;64.19
73633;BME280;61927;50.080;14.418;2023-09-19T08:46:07;99137.75;;;19.81;64.44
73633;BME280;61927;50.080;14.418;2023-09-19T08:48:39;99142.50;;;19.87;64.19
73633;BME280;61927;50.080;14.418;2023-09-19T08:51:18;99144.88;;;19.90;63.82
73633;BME280;61927;50.080;14.418;2023-09-19T08:53:56;99140.03;;;20.02;63.47
73633;BME280;61927;50.080;14.418;2023-09-19T08:56:26;99143.56;;;20.03;63.40
73633;BME280;61927;50.080;14.418;2023-09-19T08:58:57;99155.06;;;20.13;62.71
73633;BME280;61927;50.080;14.418;2023-09-19T09:01:27;99153.53;;;20.10;62.35
73633;BME280;61927;50.080;14.418;2023-09-19T09:03:54;99161.41;;;20.04;63.09
73633;BME280;61927;50.080;14.418;2023-09-19T09:06:20;99160.13;;;20.16;62.74
73633;BME280;61927;50.080;14.418;2023-09-19T09:08:47;99165.03;;;20.28;62.17
73633;BME280;61927;50.080;14.418;2023-09-19T09:11:16;99165.22;;;20.35;61.99
73633;BME280;61927;50.080;14.418;2023-09-19T09:13:44;99157.81;;;20.29;61.96
73633;BME280;61927;50.080;14.418;2023-09-19T09:16:10;99155.47;;;20.34;61.87
73633;BME280;61927;50.080;14.418;2023-09-19T09:18:36;99163.59;;;20.42;61.92
73633;BME280;61927;50.080;14.418;2023-09-19T09:21:02;99177.63;;;20.62;61.00
73633;BME280;61927;50.080;14.418;2023-09-19T09:23:30;99158.94;;;20.69;60.39
73633;BME280;61927;50.080;14.418;2023-09-19T09:25:59;99165.69;;;20.64;60.33
73633;BME280;61927;50.080;14.418;2023-09-19T09:28:30;99166.00;;;20.61;60.17
73633;BME280;61927;50.080;14.418;2023-09-19T09:30:57;99160.44;;;20.63;60.50
73633;BME280;61927;50.080;14.418;2023-09-19T09:33:34;99154.22;;;20.71;60.45
73633;BME280;61927;50.080;14.418;2023-09-19T09:36:01;99167.72;;;20.79;59.99
73633;BME280;61927;50.080;14.418;2023-09-19T09:38:47;99155.06;;;20.79;60.21
73633;BME280;61927;50.080;14.418;2023-09-19T09:41:35;99157.44;;;20.82;59.47
73633;BME280;61927;50.080;14.418;2023-09-19T09:44:13;99148.84;;;20.87;59.21
73633;BME280;61927;50.080;14.418;2023-09-19T09:46:47;99145.81;;;20.90;59.09
73633;BME280;61927;50.080;14.418;2023-09-19T09:49:26;99139.75;;;20.88;59.44
73633;BME280;61927;50.080;14.418;2023-09-19T09:52:07;99128.44;;;20.76;58.73
73633;BME280;61927;50.080;14.418;2023-09-19T09:55:04;99128.78;;;20.65;58.74
73633;BME280;61927;50.080;14.418;2023-09-19T09:57:34;99128.78;;;20.65;58.43
73633;BME280;61927;50.080;14.418;2023-09-19T10:00:01;99132.00;;;20.77;57.64
73633;BME280;61927;50.080;14.418;2023-09-19T10:02:39;99140.75;;;20.95;57.26
73633;BME280;61927;50.080;14.418;2023-09-19T10:05:18;99135.88;;;21.07;56.50
73633;BME280;61927;50.080;14.418;2023-09-19T10:07:53;99137.88;;;21.13;56.59
73633;BME280;61927;50.080;14.418;2023-09-19T10:10:36;99148.19;;;21.25;55.97
73633;BME280;61927;50.080;14.418;2023-09-19T10:13:09;99134.69;;;21.42;55.68
73633;BME280;61927;50.080;14.418;2023-09-19T10:15:46;99155.91;;;21.61;54.74
73633;BME280;61927;50.080;14.418;2023-09-19T10:18:27;99148.28;;;21.73;54.67
73633;BME280;61927;50.080;14.418;2023-09-19T10:20:56;99151.13;;;21.79;54.33
73633;BME280;61927;50.080;14.418;2023-09-19T10:23:22;99154.31;;;21.83;53.82
73633;BME280;61927;50.080;14.418;2023-09-19T10:25:49;99163.25;;;21.91;53.91
73633;BME280;61927;50.080;14.418;2023-09-19T10:28:17;99162.22;;;21.92;53.72
73633;BME280;61927;50.080;14.418;2023-09-19T10:30:48;99155.66;;;21.87;53.81
73633;BME280;61927;50.080;14.418;2023-09-19T10:33:16;99154.84;;;21.78;53.75
73633;BME280;61927;50.080;14.418;2023-09-19T10:35:45;99151.31;;;21.70;54.50
73633;BME280;61927;50.080;14.418;2023-09-19T10:38:13;99146.47;;;21.57;54.20
73633;BME280;61927;50.080;14.418;2023-09-19T10:40:39;99143.09;;;21.47;52.68
73633;BME280;61927;50.080;14.418;2023-09-19T10:43:12;99150.88;;;21.42;50.69
73633;BME280;61927;50.080;14.418;2023-09-19T10:45:38;99147.69;;;21.30;49.82
73633;BME280;61927;50.080;14.418;2023-09-19T10:48:06;99147.69;;;21.22;49.43
73633;BME280;61927;50.080;14.418;2023-09-19T10:50:46;99146.69;;;21.23;49.06
73633;BME280;61927;50.080;14.418;2023-09-19T10:53:14;99140.41;;;21.39;48.55
73633;BME280;61927;50.080;14.418;2023-09-19T10:55:52;99132.44;;;21.62;48.16
73633;BME280;61927;50.080;14.418;2023-09-19T10:58:31;99135.63;;;21.73;49.00
73633;BME280;61927;50.080;14.418;2023-09-19T11:01:02;99139.50;;;21.71;48.12
73633;BME280;61927;50.080;14.418;2023-09-19T11:03:31;99144.25;;;21.69;48.56
73633;BME280;61927;50.080;14.418;2023-09-19T11:06:03;99153.16;;;21.77;48.57
73633;BME280;61927;50.080;14.418;2023-09-19T11:09:01;99150.09;;;21.80;48.17
73633;BME280;61927;50.080;14.418;2023-09-19T11:11:53;99142.69;;;21.74;48.20
73633;BME280;61927;50.080;14.418;2023-09-19T11:30:33;99148.50;;;21.47;49.17
73633;BME280;61927;50.080;14.418;2023-09-19T11:33:19;99138.03;;;21.52;48.73
73633;BME280;61927;50.080;14.418;2023-09-19T11:36:11;99129.94;;;21.52;48.69
73633;BME280;61927;50.080;14.418;2023-09-19T11:46:30;99132.97;;;21.49;46.28
73633;BME280;61927;50.080;14.418;2023-09-19T11:49:07;99138.38;;;21.49;45.66
73633;BME280;61927;50.080;14.418;2023-09-19T11:51:41;99148.31;;;21.56;45.65
73633;BME280;61927;50.080;14.418;2023-09-19T11:54:11;99142.94;;;21.48;46.02
73633;BME280;61927;50.080;14.418;2023-09-19T11:56:53;99141.41;;;21.46;46.33
73633;BME280;61927;50.080;14.418;2023-09-19T11:59:24;99142.09;;;21.48;46.12
73633;BME280;61927;50.080;14.418;2023-09-19T12:01:54;99144.63;;;21.49;46.68
73633;BME280;61927;50.080;14.418;2023-09-19T12:04:43;99146.81;;;21.46;46.05
73633;BME280;61927;50.080;14.418;2023-09-19T12:07:16;99143.25;;;21.53;46.26
73633;BME280;61927;50.080;14.418;2023-09-19T12:09:44;99148.16;;;21.58;46.20
73633;BME280;61927;50.080;14.418;2023-09-19T12:12:22;99133.78;;;21.66;44.42
73633;BME280;61927;50.080;14.418;2023-09-19T12:14:53;99143.19;;;21.78;43.18
73633;BME280;61927;50.080;14.418;2023-09-19T12:17:19;99134.25;;;21.77;42.94
73633;BME280;61927;50.080;14.418;2023-09-19T12:19:56;99129.00;;;21.84;42.47
73633;BME280;61927;50.080;14.418;2023-09-19T12:22:21;99130.34;;;21.88;42.52
73633;BME280;61927;50.080;14.418;2023-09-19T12:24:47;99123.25;;;21.87;42.54
73633;BME280;61927;50.080;14.418;2023-09-19T12:27:14;99127.25;;;21.99;41.30
73633;BME280;61927;50.080;14.418;2023-09-19T12:29:45;99135.34;;;21.99;41.96
73633;BME280;61927;50.080;14.418;2023-09-19T12:32:12;99125.91;;;22.03;42.61
73633;BME280;61927;50.080;14.418;2023-09-19T12:34:38;99130.63;;;22.09;41.76
73633;BME280;61927;50.080;14.418;2023-09-19T12:37:14;99122.69;;;22.08;42.61
73633;BME280;61927;50.080;14.418;2023-09-19T12:39:51;99127.06;;;22.09;42.42
73633;BME280;61927;50.080;14.418;2023-09-19T12:42:22;99118.97;;;22.09;42.12
73633;BME280;61927;50.080;14.418;2023-09-19T12:44:50;99122.16;;;22.12;41.68
73633;BME280;61927;50.080;14.418;2023-09-19T12:47:23;99118.44;;;22.13;41.46
73633;BME280;61927;50.080;14.418;2023-09-19T12:50:06;99114.53;;;22.16;41.53
73633;BME280;61927;50.080;14.418;2023-09-19T12:52:38;99115.78;;;22.36;41.86
73633;BME280;61927;50.080;14.418;2023-09-19T12:55:04;99116.69;;;22.51;41.58
73633;BME280;61927;50.080;14.418;2023-09-19T12:57:35;99110.16;;;22.69;41.47
73633;BME280;61927;50.080;14.418;2023-09-19T13:00:02;99114.72;;;22.91;40.42
73633;BME280;61927;50.080;14.418;2023-09-19T13:02:31;99114.66;;;22.99;40.42
73633;BME280;61927;50.080;14.418;2023-09-19T13:04:58;99114.66;;;22.99;39.65
73633;BME280;61927;50.080;14.418;2023-09-19T13:07:45;99109.16;;;22.93;39.38
73633;BME280;61927;50.080;14.418;2023-09-19T13:10:15;99106.50;;;22.84;39.94
73633;BME280;61927;50.080;14.418;2023-09-19T13:12:43;99103.31;;;22.81;40.62
73633;BME280;61927;50.080;14.418;2023-09-19T13:15:14;99106.50;;;22.84;40.72
73633;BME280;61927;50.080;14.418;2023-09-19T13:17:47;99097.38;;;22.85;40.00
73633;BME280;61927;50.080;14.418;2023-09-19T13:20:26;99101.47;;;22.81;38.89
73633;BME280;61927;50.080;14.418;2023-09-19T13:22:57;99098.94;;;22.80;38.44
73633;BME280;61927;50.080;14.418;2023-09-19T13:25:38;99105.19;;;22.80;38.33
73633;BME280;61927;50.080;14.418;2023-09-19T13:28:05;99102.47;;;22.80;38.17
73633;BME280;61927;50.080;14.418;2023-09-19T13:30:31;99097.72;;;22.82;37.93
73633;BME280;61927;50.080;14.418;2023-09-19T13:33:10;99100.53;;;22.89;37.28
73633;BME280;61927;50.080;14.418;2023-09-19T13:35:38;99103.66;;;23.01;37.48
73633;BME280;61927;50.080;14.418;2023-09-19T13:38:05;99097.03;;;23.03;36.66
73633;BME280;61927;50.080;14.418;2023-09-19T13:40:32;99101.25;;;23.06;37.50
73633;BME280;61927;50.080;14.418;2023-09-19T13:43:01;99093.03;;;22.99;37.40